Time;durP1;ratioP1;P1;durP2;ratioP2;P2;SDS_P1;SDS_P2;PMS_P1;PMS_P2;Temp;Humidity;BMP_temperature;BMP_pressure;BME280_temperature;BME280_humidity;BME280_pressure;Samples;Min_cycle;Max_cycle;Signal;HPM_P1;HPM_P2
2021/01/19 00:02:13;;;;;;;1.57;1.15;;;1.70;99.90;;;;;;1884586;76;21160;-70
2021/01/19 00:04:44;;;;;;;1.70;1.60;;;1.70;99.90;;;;;;1884898;76;21469;-71
2021/01/19 00:07:07;;;;;;;0.82;0.82;;;1.80;99.90;;;;;;1883434;76;21066;-71
2021/01/19 00:09:33;;;;;;;2.75;0.70;;;1.70;99.90;;;;;;1884796;76;21152;-70
2021/01/19 00:11:59;;;;;;;2.62;1.20;;;1.70;99.90;;;;;;1884543;75;21042;-71
2021/01/19 00:14:25;;;;;;;2.77;1.40;;;1.70;99.90;;;;;;1884777;76;21039;-70
2021/01/19 00:16:51;;;;;;;1.05;1.02;;;1.70;99.90;;;;;;1884600;76;21469;-70
2021/01/19 00:19:17;;;;;;;1.37;1.02;;;1.70;99.90;;;;;;1884702;75;21497;-71
2021/01/19 00:21:44;;;;;;;1.25;1.10;;;1.70;99.90;;;;;;1884695;76;21481;-71
2021/01/19 00:24:10;;;;;;;1.57;1.12;;;1.60;99.90;;;;;;1884696;76;21061;-71
2021/01/19 00:26:37;;;;;;;0.80;0.70;;;1.60;99.90;;;;;;1884676;76;21146;-70
2021/01/19 00:29:03;;;;;;;2.37;1.02;;;1.60;99.90;;;;;;1884666;76;21082;-71
2021/01/19 00:31:29;;;;;;;1.30;0.85;;;1.50;99.90;;;;;;1884636;76;21070;-69
2021/01/19 00:33:55;;;;;;;1.10;0.88;;;1.60;99.90;;;;;;1884663;76;21111;-71
2021/01/19 00:36:21;;;;;;;4.58;0.90;;;1.60;99.90;;;;;;1884640;76;21493;-71
2021/01/19 00:38:47;;;;;;;1.50;0.95;;;1.60;99.90;;;;;;1884639;76;21461;-71
2021/01/19 00:41:13;;;;;;;2.25;1.17;;;1.60;99.90;;;;;;1884680;76;21133;-71
2021/01/19 00:43:39;;;;;;;1.52;1.22;;;1.50;99.90;;;;;;1884770;76;21061;-70
2021/01/19 00:46:06;;;;;;;1.65;1.20;;;1.50;99.90;;;;;;1884775;76;21057;-71
2021/01/19 00:48:32;;;;;;;2.62;1.37;;;1.40;99.90;;;;;;1884777;76;21058;-71
2021/01/19 00:50:58;;;;;;;1.87;1.20;;;1.40;99.90;;;;;;1884675;75;21139;-70
2021/01/19 00:53:25;;;;;;;2.77;1.40;;;1.40;99.90;;;;;;1884674;76;21058;-70
2021/01/19 00:55:51;;;;;;;1.37;1.07;;;1.40;99.90;;;;;;1884665;75;21187;-70
2021/01/19 00:58:17;;;;;;;2.58;1.20;;;1.50;99.90;;;;;;1885304;76;21073;-70
2021/01/19 01:00:43;;;;;;;1.90;0.90;;;1.50;99.90;;;;;;1884977;76;21014;-70
2021/01/19 01:03:10;;;;;;;0.80;0.80;;;1.60;99.90;;;;;;1884766;75;21065;-70
2021/01/19 01:05:37;;;;;;;3.05;1.20;;;1.60;99.90;;;;;;1884625;76;21069;-70
2021/01/19 01:08:03;;;;;;;1.00;0.80;;;1.60;99.90;;;;;;1884661;76;21057;-71
2021/01/19 01:10:29;;;;;;;3.40;0.93;;;1.60;99.90;;;;;;1884652;76;21062;-70
2021/01/19 01:12:55;;;;;;;2.30;1.15;;;1.70;99.90;;;;;;1884666;76;21054;-70
2021/01/19 01:15:21;;;;;;;1.60;1.00;;;1.60;99.90;;;;;;1884749;76;21109;-70
2021/01/19 01:17:47;;;;;;;2.77;1.30;;;1.50;99.90;;;;;;1884695;76;21081;-70
2021/01/19 01:20:13;;;;;;;0.75;0.75;;;1.50;99.90;;;;;;1884666;76;21053;-70
2021/01/19 01:22:40;;;;;;;1.72;0.90;;;1.50;99.90;;;;;;1884626;75;21085;-70
2021/01/19 01:25:06;;;;;;;2.55;1.07;;;1.50;99.90;;;;;;1884782;76;21070;-70
2021/01/19 01:27:32;;;;;;;1.65;0.75;;;1.50;99.90;;;;;;1884821;75;21054;-69
2021/01/19 01:29:58;;;;;;;1.50;1.15;;;1.30;99.90;;;;;;1884492;76;21147;-70
2021/01/19 01:32:26;;;;;;;2.25;0.93;;;1.20;99.90;;;;;;1884264;76;21154;-70
2021/01/19 01:34:52;;;;;;;1.10;1.00;;;1.00;99.90;;;;;;1889114;75;21074;-70
2021/01/19 01:37:18;;;;;;;3.27;1.12;;;1.00;99.90;;;;;;1884131;76;21045;-70
2021/01/19 01:39:44;;;;;;;1.95;1.12;;;1.00;99.90;;;;;;1884022;76;21061;-69
2021/01/19 01:42:10;;;;;;;1.60;1.05;;;1.00;99.90;;;;;;1884086;76;21058;-68
2021/01/19 01:44:36;;;;;;;1.02;0.70;;;0.90;99.90;;;;;;1884192;76;21054;-70
2021/01/19 01:47:02;;;;;;;1.00;0.90;;;0.90;99.90;;;;;;1884259;76;21138;-68
2021/01/19 01:49:29;;;;;;;0.93;0.90;;;0.80;99.90;;;;;;1888806;75;21074;-70
2021/01/19 01:51:55;;;;;;;1.00;0.90;;;0.70;99.90;;;;;;1883628;75;21143;-69
2021/01/19 01:54:21;;;;;;;1.02;1.02;;;0.70;99.90;;;;;;1883994;75;21619;-69
2021/01/19 01:56:47;;;;;;;1.90;1.17;;;0.60;99.90;;;;;;1883390;75;21586;-70
2021/01/19 01:59:13;;;;;;;2.98;1.27;;;0.60;99.90;;;;;;1884252;76;21497;-69
2021/01/19 02:01:39;;;;;;;1.37;0.93;;;0.60;99.90;;;;;;1883941;76;21152;-68
2021/01/19 02:04:05;;;;;;;2.98;1.10;;;0.60;99.90;;;;;;1884203;76;21047;-68
2021/01/19 02:06:31;;;;;;;2.98;1.62;;;0.50;99.90;;;;;;1883923;76;21191;-70
2021/01/19 02:08:57;;;;;;;4.12;1.40;;;0.50;99.90;;;;;;1884041;76;21058;-70
2021/01/19 02:11:24;;;;;;;1.42;0.93;;;0.40;99.90;;;;;;1883901;76;21069;-68
2021/01/19 02:13:50;;;;;;;0.93;0.90;;;0.40;99.90;;;;;;1883961;76;21062;-70
2021/01/19 02:16:16;;;;;;;1.52;0.93;;;0.40;99.90;;;;;;1883900;76;21505;-70
2021/01/19 02:18:42;;;;;;;1.40;0.80;;;0.50;99.90;;;;;;1883984;76;21505;-70
2021/01/19 02:21:09;;;;;;;2.27;1.10;;;0.60;99.90;;;;;;1884054;76;21139;-70
2021/01/19 02:23:35;;;;;;;1.12;0.90;;;0.50;99.90;;;;;;1884056;76;21060;-71
2021/01/19 02:26:01;;;;;;;1.72;0.88;;;0.50;99.90;;;;;;1883991;76;21097;-70
2021/01/19 02:28:27;;;;;;;1.98;1.10;;;0.50;99.90;;;;;;1883918;76;21038;-70
2021/01/19 02:30:53;;;;;;;1.65;1.55;;;0.40;99.90;;;;;;1884036;76;21069;-70
2021/01/19 02:33:19;;;;;;;3.98;0.90;;;0.10;99.90;;;;;;1884048;76;21151;-70
2021/01/19 02:35:45;;;;;;;2.85;1.20;;;0.10;99.90;;;;;;1884080;76;21078;-70
2021/01/19 02:38:11;;;;;;;0.70;0.68;;;0.10;99.90;;;;;;1883952;76;21630;-70
2021/01/19 02:40:38;;;;;;;1.37;0.88;;;0.00;99.90;;;;;;1884031;75;21441;-71
2021/01/19 02:43:04;;;;;;;1.35;0.88;;;-0.10;99.90;;;;;;1883967;75;21505;-70
2021/01/19 02:45:30;;;;;;;2.92;1.10;;;-0.10;99.90;;;;;;1884085;76;21062;-71
2021/01/19 02:47:56;;;;;;;1.47;0.88;;;-0.10;99.90;;;;;;1883965;76;21220;-70
2021/01/19 02:50:22;;;;;;;2.47;1.42;;;0.00;99.90;;;;;;1883969;76;21155;-70
2021/01/19 02:52:48;;;;;;;1.15;0.98;;;-0.10;99.90;;;;;;1884082;76;21054;-70
2021/01/19 02:55:14;;;;;;;1.87;0.90;;;-0.20;99.90;;;;;;1884016;76;21042;-69
2021/01/19 02:57:40;;;;;;;1.12;0.90;;;-0.30;99.90;;;;;;1883939;76;21147;-69
2021/01/19 03:00:07;;;;;;;1.42;1.00;;;-0.30;99.90;;;;;;1883991;76;21135;-69
2021/01/19 03:02:33;;;;;;;0.80;0.80;;;-0.40;99.90;;;;;;1884122;76;21066;-69
2021/01/19 03:04:59;;;;;;;0.80;0.65;;;-0.40;99.90;;;;;;1884037;76;21169;-69
2021/01/19 03:07:25;;;;;;;1.10;1.00;;;-0.40;99.90;;;;;;1883933;76;21042;-70
2021/01/19 03:09:51;;;;;;;1.37;1.07;;;-0.40;99.90;;;;;;1884037;76;21046;-69
2021/01/19 03:12:17;;;;;;;1.55;1.02;;;-0.30;99.90;;;;;;1883927;76;21062;-69
2021/01/19 03:14:43;;;;;;;6.08;1.27;;;-0.40;99.90;;;;;;1883969;76;21146;-69
2021/01/19 03:17:10;;;;;;;1.35;1.20;;;-0.30;99.90;;;;;;1883870;75;21077;-69
2021/01/19 03:19:36;;;;;;;1.37;1.02;;;-0.30;99.90;;;;;;1883985;76;21062;-69
2021/01/19 03:22:02;;;;;;;2.15;1.25;;;-0.30;99.90;;;;;;1883988;76;21147;-69
2021/01/19 03:24:28;;;;;;;1.85;1.07;;;-0.30;99.90;;;;;;1884094;76;21065;-70
2021/01/19 03:26:54;;;;;;;1.40;1.30;;;-0.10;99.90;;;;;;1884043;76;21139;-69
2021/01/19 03:29:20;;;;;;;3.12;1.17;;;-0.10;99.90;;;;;;1884007;76;21069;-69
2021/01/19 03:31:46;;;;;;;3.55;1.07;;;-0.10;99.90;;;;;;1884010;76;21159;-69
2021/01/19 03:34:12;;;;;;;1.82;1.02;;;-0.20;99.90;;;;;;1884011;76;21254;-68
2021/01/19 03:36:38;;;;;;;1.10;1.05;;;-0.10;99.90;;;;;;1884047;76;21158;-69
2021/01/19 03:39:05;;;;;;;0.82;0.80;;;0.00;99.90;;;;;;1883895;76;21158;-69
2021/01/19 03:41:31;;;;;;;1.17;1.00;;;0.00;99.90;;;;;;1884158;76;21505;-70
2021/01/19 03:43:57;;;;;;;1.20;1.10;;;0.00;99.90;;;;;;1884173;76;21481;-69
2021/01/19 03:46:25;;;;;;;2.00;1.20;;;0.10;99.90;;;;;;1883607;76;21163;-69
2021/01/19 03:48:51;;;;;;;2.50;1.27;;;0.00;99.90;;;;;;1884193;76;21046;-70
2021/01/19 03:51:17;;;;;;;1.47;1.15;;;0.00;99.90;;;;;;1884339;76;21496;-68
2021/01/19 03:53:43;;;;;;;1.42;1.32;;;0.10;99.90;;;;;;1884232;75;21548;-70
2021/01/19 03:56:09;;;;;;;4.87;1.55;;;0.20;99.90;;;;;;1884915;76;21513;-69
2021/01/19 03:58:35;;;;;;;1.52;1.27;;;0.20;99.90;;;;;;1885460;75;21089;-69
2021/01/19 04:01:01;;;;;;;2.70;1.10;;;0.20;99.90;;;;;;1886929;76;21049;-68
2021/01/19 04:03:27;;;;;;;1.15;1.02;;;0.30;99.90;;;;;;1887436;76;21021;-69
2021/01/19 04:05:54;;;;;;;1.27;0.95;;;0.40;99.90;;;;;;1887363;76;21018;-70
2021/01/19 04:08:20;;;;;;;3.65;1.30;;;0.50;99.90;;;;;;1887421;76;21119;-69
2021/01/19 04:10:48;;;;;;;1.72;1.10;;;0.50;99.90;;;;;;1887275;76;21123;-70
2021/01/19 04:13:14;;;;;;;3.58;1.10;;;0.50;99.90;;;;;;1886913;76;21101;-67
2021/01/19 04:15:40;;;;;;;1.45;1.10;;;0.50;99.90;;;;;;1885955;75;21147;-70
2021/01/19 04:18:06;;;;;;;2.05;1.40;;;0.50;99.90;;;;;;1884644;76;21077;-68
2021/01/19 04:20:32;;;;;;;3.35;1.10;;;0.50;99.90;;;;;;1884075;75;21109;-67
2021/01/19 04:22:59;;;;;;;1.12;1.02;;;0.60;99.90;;;;;;1884184;76;21038;-70
2021/01/19 04:25:25;;;;;;;3.20;1.10;;;0.60;99.90;;;;;;1884202;76;21481;-68
2021/01/19 04:27:51;;;;;;;1.10;1.10;;;0.60;99.90;;;;;;1883966;76;21462;-69
2021/01/19 04:30:17;;;;;;;4.72;1.30;;;0.60;99.90;;;;;;1884107;75;21071;-68
2021/01/19 04:32:45;;;;;;;3.92;1.02;;;0.70;99.90;;;;;;1884025;76;21134;-71
2021/01/19 04:35:11;;;;;;;3.30;0.95;;;0.70;99.90;;;;;;1884198;76;21504;-68
2021/01/19 04:37:37;;;;;;;3.70;1.40;;;0.60;99.90;;;;;;1884336;76;21468;-68
2021/01/19 04:40:04;;;;;;;2.52;1.00;;;0.60;99.90;;;;;;1883999;76;21525;-70
2021/01/19 04:42:31;;;;;;;1.15;0.95;;;0.60;99.90;;;;;;1902532;73;21095;-69
2021/01/19 04:44:57;;;;;;;1.10;1.00;;;0.60;99.90;;;;;;1908738;75;21494;-70
2021/01/19 04:47:23;;;;;;;2.15;1.40;;;0.60;99.90;;;;;;1908620;75;21481;-68
2021/01/19 04:49:50;;;;;;;1.00;0.90;;;0.50;99.90;;;;;;1908767;75;21479;-70
2021/01/19 04:52:16;;;;;;;1.10;1.00;;;0.40;99.90;;;;;;1908545;75;21534;-67
2021/01/19 04:54:42;;;;;;;1.10;0.98;;;0.40;99.90;;;;;;1908735;75;21169;-68
2021/01/19 04:57:08;;;;;;;5.40;1.20;;;0.40;99.90;;;;;;1908551;75;21140;-70
2021/01/19 04:59:34;;;;;;;1.40;1.30;;;0.40;99.90;;;;;;1909113;74;21067;-70
2021/01/19 05:02:00;;;;;;;4.62;1.27;;;0.40;99.90;;;;;;1909578;75;21040;-67
2021/01/19 05:04:26;;;;;;;2.10;1.27;;;0.40;99.90;;;;;;1909336;75;21086;-67
2021/01/19 05:06:52;;;;;;;1.35;1.20;;;0.40;99.90;;;;;;1909116;75;21109;-70
2021/01/19 05:09:19;;;;;;;1.55;1.10;;;0.50;99.90;;;;;;1909224;75;21503;-70
2021/01/19 05:11:45;;;;;;;4.72;1.62;;;0.50;99.90;;;;;;1909100;75;21440;-70
2021/01/19 05:14:11;;;;;;;3.20;1.72;;;0.60;99.90;;;;;;1909272;75;21491;-69
2021/01/19 05:16:37;;;;;;;8.30;1.90;;;0.60;99.90;;;;;;1909294;75;21158;-65
2021/01/19 05:19:03;;;;;;;3.50;2.05;;;0.60;99.90;;;;;;1908928;75;21071;-67
2021/01/19 05:21:29;;;;;;;4.00;1.25;;;0.60;99.90;;;;;;1908913;75;21067;-67
2021/01/19 05:23:56;;;;;;;1.92;1.10;;;0.60;99.90;;;;;;1909158;74;21040;-69
2021/01/19 05:26:22;;;;;;;3.00;1.57;;;0.60;99.90;;;;;;1909049;74;21148;-70
2021/01/19 05:28:49;;;;;;;1.72;1.32;;;0.60;99.90;;;;;;1908775;75;21039;-70
2021/01/19 05:31:15;;;;;;;4.78;1.50;;;0.60;99.90;;;;;;1908783;74;21079;-70
2021/01/19 05:33:41;;;;;;;2.05;1.00;;;0.60;99.90;;;;;;1908870;75;21048;-70
2021/01/19 05:36:07;;;;;;;1.55;1.02;;;0.60;99.90;;;;;;1908756;75;21106;-67
2021/01/19 05:38:33;;;;;;;0.90;0.90;;;0.60;99.90;;;;;;1908600;75;21518;-70
2021/01/19 05:40:59;;;;;;;2.65;1.35;;;0.60;99.90;;;;;;1908930;75;21535;-70
2021/01/19 05:43:27;;;;;;;2.52;1.40;;;0.60;99.90;;;;;;1908762;75;21071;-70
2021/01/19 05:45:53;;;;;;;5.03;1.30;;;0.60;99.90;;;;;;1908755;75;21079;-71
2021/01/19 05:48:19;;;;;;;1.25;0.95;;;0.60;99.90;;;;;;1908586;75;21511;-72
2021/01/19 05:50:45;;;;;;;1.82;1.02;;;0.60;99.90;;;;;;1908709;75;21475;-75
2021/01/19 05:53:12;;;;;;;2.87;1.52;;;0.60;99.90;;;;;;1908853;74;21544;-74
2021/01/19 05:55:38;;;;;;;1.85;0.90;;;0.70;99.90;;;;;;1908621;75;21094;-71
2021/01/19 05:58:04;;;;;;;3.55;2.25;;;0.60;99.90;;;;;;1908681;74;21141;-72
2021/01/19 06:00:30;;;;;;;2.33;1.27;;;0.60;99.90;;;;;;1908577;75;21075;-70
2021/01/19 06:02:56;;;;;;;1.12;0.82;;;0.60;99.90;;;;;;1908666;75;21148;-71
2021/01/19 06:05:22;;;;;;;4.22;1.25;;;0.60;99.90;;;;;;1908655;75;21124;-72
2021/01/19 06:07:48;;;;;;;1.20;1.07;;;0.60;99.90;;;;;;1908649;75;21075;-72
2021/01/19 06:10:14;;;;;;;2.12;1.27;;;0.50;99.90;;;;;;1908734;75;21144;-73
2021/01/19 06:12:40;;;;;;;1.77;1.40;;;0.60;99.90;;;;;;1908723;75;21044;-72
2021/01/19 06:15:07;;;;;;;1.30;1.20;;;0.60;99.90;;;;;;1908676;75;21105;-73
2021/01/19 06:17:33;;;;;;;3.80;1.32;;;0.60;99.90;;;;;;1908607;75;21052;-73
2021/01/19 06:19:59;;;;;;;6.53;1.90;;;0.60;99.90;;;;;;1908648;75;21136;-71
2021/01/19 06:22:25;;;;;;;1.52;1.10;;;0.50;99.90;;;;;;1908534;75;21137;-71
2021/01/19 06:25:05;;;;;;;12.88;1.45;;;0.60;99.90;;;;;;1908776;75;21071;-85
2021/01/19 06:27:25;;;;;;;2.70;1.37;;;0.50;99.90;;;;;;1906084;75;21079;-71
2021/01/19 06:29:51;;;;;;;7.12;1.40;;;0.50;99.90;;;;;;1908661;75;21071;-71
2021/01/19 06:32:18;;;;;;;1.77;1.30;;;0.50;99.90;;;;;;1908799;75;21136;-73
2021/01/19 06:34:44;;;;;;;2.85;1.40;;;0.50;99.90;;;;;;1908587;74;21083;-73
2021/01/19 06:37:10;;;;;;;1.92;1.10;;;0.50;99.90;;;;;;1908676;74;21152;-73
2021/01/19 06:39:36;;;;;;;1.67;1.20;;;0.40;99.90;;;;;;1908813;75;21420;-73
2021/01/19 06:42:02;;;;;;;2.17;1.45;;;0.50;99.90;;;;;;1908744;75;21467;-72
2021/01/19 06:44:28;;;;;;;1.98;1.65;;;0.50;99.90;;;;;;1908985;75;21577;-72
2021/01/19 06:46:54;;;;;;;2.45;1.40;;;0.50;99.90;;;;;;1909082;75;21125;-74
2021/01/19 06:49:20;;;;;;;1.87;0.98;;;0.40;99.90;;;;;;1909075;75;21058;-73
2021/01/19 06:51:47;;;;;;;1.15;1.05;;;0.40;99.90;;;;;;1908665;75;21062;-71
2021/01/19 06:54:13;;;;;;;1.87;1.15;;;0.40;99.90;;;;;;1908553;75;21028;-70
2021/01/19 06:56:39;;;;;;;3.15;1.07;;;0.50;99.90;;;;;;1908734;74;21035;-72
2021/01/19 06:59:05;;;;;;;1.47;1.27;;;0.40;99.90;;;;;;1908806;75;21136;-71
2021/01/19 07:01:31;;;;;;;2.12;1.55;;;0.40;99.90;;;;;;1908807;74;21063;-73
2021/01/19 07:03:57;;;;;;;1.52;1.10;;;0.40;99.90;;;;;;1908800;75;21102;-72
2021/01/19 07:06:23;;;;;;;1.95;1.05;;;0.50;99.90;;;;;;1908596;75;21137;-74
2021/01/19 07:08:49;;;;;;;2.05;1.27;;;0.40;99.90;;;;;;1908805;75;21078;-72
2021/01/19 07:11:15;;;;;;;1.37;1.10;;;0.40;99.90;;;;;;1908801;75;21070;-73
2021/01/19 07:13:42;;;;;;;2.45;1.20;;;0.40;99.90;;;;;;1909097;74;21432;-73
2021/01/19 07:16:08;;;;;;;1.20;0.82;;;0.30;99.90;;;;;;1908973;75;21485;-73
2021/01/19 07:18:34;;;;;;;6.35;1.10;;;0.30;99.90;;;;;;1908915;75;21039;-73
2021/01/19 07:21:00;;;;;;;1.77;1.05;;;0.30;99.90;;;;;;1909209;75;21059;-73
2021/01/19 07:23:27;;;;;;;0.75;0.75;;;0.30;99.90;;;;;;1909148;74;21569;-74
2021/01/19 07:25:53;;;;;;;2.10;1.02;;;0.30;99.90;;;;;;1909199;75;21568;-75
2021/01/19 07:28:19;;;;;;;1.10;0.93;;;0.20;99.90;;;;;;1909240;75;21062;-74
2021/01/19 07:30:45;;;;;;;6.25;1.20;;;0.30;99.90;;;;;;1909275;75;21150;-74
2021/01/19 07:33:11;;;;;;;2.12;1.07;;;0.30;99.90;;;;;;1909289;75;21059;-74
2021/01/19 07:35:37;;;;;;;1.25;0.93;;;0.20;99.90;;;;;;1909232;75;21106;-74
2021/01/19 07:38:03;;;;;;;4.28;1.52;;;0.20;99.90;;;;;;1909351;75;21067;-75
2021/01/19 07:40:30;;;;;;;1.07;1.05;;;0.20;99.90;;;;;;1909395;75;21079;-75
2021/01/19 07:42:56;;;;;;;2.83;1.55;;;0.10;99.90;;;;;;1909192;74;21071;-74
2021/01/19 07:45:22;;;;;;;7.53;1.30;;;0.10;99.90;;;;;;1909271;75;21443;-74
2021/01/19 07:47:48;;;;;;;3.50;1.87;;;0.10;99.90;;;;;;1909280;74;21503;-74
2021/01/19 07:50:14;;;;;;;2.72;1.25;;;0.10;99.90;;;;;;1909314;74;21482;-74
2021/01/19 07:52:40;;;;;;;1.25;1.15;;;0.10;99.90;;;;;;1909298;75;21129;-77
2021/01/19 07:55:06;;;;;;;4.10;1.60;;;0.10;99.90;;;;;;1909279;74;21035;-76
2021/01/19 07:57:32;;;;;;;1.92;1.17;;;0.20;99.90;;;;;;1909281;75;21068;-77
2021/01/19 07:59:59;;;;;;;3.30;1.42;;;0.20;99.90;;;;;;1909246;75;21067;-77
2021/01/19 08:02:25;;;;;;;5.12;2.25;;;0.20;99.90;;;;;;1909375;75;21032;-77
2021/01/19 08:04:51;;;;;;;9.55;2.20;;;0.30;99.90;;;;;;1909248;75;21500;-76
2021/01/19 08:07:23;;;;;;;4.03;2.00;;;0.30;99.90;;;;;;1909548;75;21521;-77
2021/01/19 08:09:46;;;;;;;4.72;2.65;;;0.40;99.90;;;;;;1908341;74;21055;-78
2021/01/19 08:12:14;;;;;;;3.45;2.10;;;0.50;99.90;;;;;;1909382;75;21061;-76
2021/01/19 08:14:40;;;;;;;4.05;2.52;;;0.70;99.90;;;;;;1909110;74;21584;-78
2021/01/19 08:17:06;;;;;;;7.00;2.40;;;0.70;99.90;;;;;;1909362;75;21471;-75
2021/01/19 08:19:32;;;;;;;4.05;1.90;;;0.80;99.90;;;;;;1909176;74;21066;-77
2021/01/19 08:21:58;;;;;;;2.92;1.47;;;1.00;99.90;;;;;;1909390;75;21179;-78
2021/01/19 08:24:24;;;;;;;3.65;1.57;;;1.00;99.90;;;;;;1909158;75;21060;-77
2021/01/19 08:26:50;;;;;;;6.67;1.72;;;1.10;99.90;;;;;;1909208;75;21056;-76
2021/01/19 08:29:16;;;;;;;3.52;1.67;;;1.10;99.90;;;;;;1909280;75;21054;-78
2021/01/19 08:31:42;;;;;;;4.37;1.80;;;1.10;99.90;;;;;;1909264;75;21055;-76
2021/01/19 08:34:09;;;;;;;7.85;2.27;;;1.20;99.90;;;;;;1909369;74;21059;-75
2021/01/19 08:36:35;;;;;;;11.40;1.95;;;1.20;99.90;;;;;;1909202;74;21502;-76
2021/01/19 08:39:01;;;;;;;3.33;1.75;;;1.30;99.90;;;;;;1909432;75;21494;-75
2021/01/19 08:41:27;;;;;;;2.17;1.37;;;1.50;99.90;;;;;;1909141;75;21117;-76
2021/01/19 08:43:53;;;;;;;3.85;1.52;;;1.50;99.90;;;;;;1909350;75;21058;-74
2021/01/19 08:46:20;;;;;;;4.12;1.85;;;1.70;99.90;;;;;;1909135;75;21063;-75
2021/01/19 08:48:46;;;;;;;2.02;1.17;;;1.80;99.90;;;;;;1909429;75;21059;-75
2021/01/19 08:51:12;;;;;;;3.47;1.60;;;2.00;99.90;;;;;;1909151;75;21036;-75
2021/01/19 08:53:38;;;;;;;3.20;1.47;;;2.10;99.90;;;;;;1909350;75;21086;-73
2021/01/19 08:56:05;;;;;;;4.22;1.92;;;2.20;99.90;;;;;;1909211;75;21148;-74
2021/01/19 08:58:32;;;;;;;4.53;1.75;;;2.10;99.90;;;;;;1909549;74;21067;-75
2021/01/19 09:00:58;;;;;;;3.42;1.70;;;1.90;99.90;;;;;;1909340;74;21530;-75
2021/01/19 09:03:24;;;;;;;3.80;1.60;;;2.00;99.90;;;;;;1909159;75;21134;-76
2021/01/19 09:05:50;;;;;;;4.47;1.70;;;2.10;99.90;;;;;;1909377;75;21039;-75
2021/01/19 09:08:16;;;;;;;2.35;1.47;;;2.10;99.90;;;;;;1909141;75;21051;-76
2021/01/19 09:10:42;;;;;;;2.62;1.87;;;2.10;99.90;;;;;;1909320;74;21138;-76
2021/01/19 09:13:09;;;;;;;3.17;1.60;;;2.30;99.90;;;;;;1909119;74;21062;-76
2021/01/19 09:15:35;;;;;;;8.00;1.65;;;2.30;99.90;;;;;;1909151;75;21149;-75
2021/01/19 09:18:02;;;;;;;3.70;1.32;;;2.20;99.90;;;;;;1909278;75;21118;-74
2021/01/19 09:20:28;;;;;;;1.75;1.60;;;2.40;99.90;;;;;;1909129;75;21156;-76
2021/01/19 09:22:54;;;;;;;1.98;1.57;;;2.20;99.90;;;;;;1909271;75;21062;-76
2021/01/19 09:25:21;;;;;;;1.87;1.70;;;2.10;99.90;;;;;;1909272;74;21166;-76
2021/01/19 09:27:48;;;;;;;4.00;1.42;;;2.00;99.90;;;;;;1909204;74;21106;-74
2021/01/19 09:30:14;;;;;;;2.92;2.00;;;1.70;99.90;;;;;;1909201;75;21129;-74
2021/01/19 09:32:40;;;;;;;2.52;1.82;;;1.80;99.90;;;;;;1909302;75;21060;-76
2021/01/19 09:35:06;;;;;;;1.98;1.47;;;1.90;99.90;;;;;;1912449;75;21055;-74
2021/01/19 09:37:32;;;;;;;8.13;2.10;;;2.00;99.90;;;;;;1909313;75;21489;-74
2021/01/19 09:39:58;;;;;;;7.67;2.10;;;2.00;99.90;;;;;;1910689;75;21494;-76
2021/01/19 09:42:25;;;;;;;3.27;2.05;;;2.10;99.90;;;;;;1911339;74;21539;-76
2021/01/19 09:44:51;;;;;;;2.98;1.98;;;2.10;99.90;;;;;;1915383;73;21165;-76
2021/01/19 09:47:17;;;;;;;3.92;1.85;;;2.10;99.90;;;;;;1909060;74;21064;-76
2021/01/19 09:49:43;;;;;;;2.72;1.62;;;2.10;99.90;;;;;;1909315;75;21055;-76
2021/01/19 09:52:09;;;;;;;4.30;1.72;;;2.20;99.90;;;;;;1912328;75;21066;-75
2021/01/19 09:54:35;;;;;;;1.90;1.70;;;2.10;99.90;;;;;;1909288;75;21072;-74
2021/01/19 09:57:01;;;;;;;3.25;2.02;;;2.20;99.90;;;;;;1909092;74;21048;-74
2021/01/19 09:59:28;;;;;;;4.08;1.75;;;2.20;99.90;;;;;;1909253;75;21699;-74
2021/01/19 10:01:58;;;;;;;2.70;1.75;;;2.40;99.90;;;;;;1909097;75;21128;-75
2021/01/19 10:04:24;;;;;;;2.67;2.08;;;2.50;99.90;;;;;;1909231;74;21051;-75
2021/01/19 10:06:51;;;;;;;6.37;2.47;;;2.50;99.90;;;;;;1909324;74;21091;-75
2021/01/19 10:09:17;;;;;;;3.60;2.05;;;2.40;99.90;;;;;;1909128;75;21044;-75
2021/01/19 10:11:43;;;;;;;4.45;2.52;;;2.40;99.90;;;;;;1909339;75;21066;-76
2021/01/19 10:14:09;;;;;;;5.75;2.92;;;2.30;99.90;;;;;;1909146;74;21079;-75
2021/01/19 10:16:35;;;;;;;3.87;1.85;;;2.30;99.90;;;;;;1909275;74;21033;-75
2021/01/19 10:19:01;;;;;;;1.35;1.25;;;2.50;99.90;;;;;;1909356;75;21149;-75
2021/01/19 10:21:28;;;;;;;8.73;2.00;;;2.60;99.90;;;;;;1910822;75;21066;-77
2021/01/19 10:23:54;;;;;;;2.60;1.52;;;2.70;99.90;;;;;;1909605;74;21400;-75
2021/01/19 10:26:20;;;;;;;7.58;1.60;;;2.80;99.90;;;;;;1909354;74;21137;-75
2021/01/19 10:28:46;;;;;;;5.05;1.95;;;2.80;99.90;;;;;;1909259;75;21070;-75
2021/01/19 10:31:12;;;;;;;3.70;2.02;;;2.70;99.90;;;;;;1909353;75;21075;-75
2021/01/19 10:33:38;;;;;;;7.12;2.05;;;2.70;99.90;;;;;;1909172;74;21119;-76
2021/01/19 10:36:04;;;;;;;3.00;1.72;;;2.70;99.90;;;;;;1909243;74;21043;-76
2021/01/19 10:38:30;;;;;;;2.85;2.02;;;2.60;99.90;;;;;;1909173;75;21074;-76
2021/01/19 10:40:57;;;;;;;6.28;2.25;;;2.70;99.90;;;;;;1909143;75;21515;-76
2021/01/19 10:43:23;;;;;;;4.55;2.22;;;2.70;99.90;;;;;;1909125;74;21047;-75
2021/01/19 10:45:49;;;;;;;3.25;2.02;;;2.80;99.90;;;;;;1909195;75;21048;-76
2021/01/19 10:48:15;;;;;;;1.90;1.60;;;2.70;99.90;;;;;;1909243;75;21035;-76
2021/01/19 10:50:41;;;;;;;2.60;1.75;;;2.80;99.90;;;;;;1909283;75;21071;-76
2021/01/19 10:53:07;;;;;;;1.77;1.67;;;2.90;99.90;;;;;;1909336;75;21067;-76
2021/01/19 10:55:33;;;;;;;3.92;1.90;;;3.00;99.90;;;;;;1909318;75;21133;-76
2021/01/19 10:58:00;;;;;;;8.75;2.30;;;3.00;99.90;;;;;;1909358;74;21145;-74
2021/01/19 11:00:28;;;;;;;3.37;1.95;;;2.90;99.90;;;;;;1909246;74;21071;-75
2021/01/19 11:02:54;;;;;;;2.72;1.90;;;3.00;99.90;;;;;;1909209;75;21503;-80
2021/01/19 11:05:20;;;;;;;2.02;1.62;;;3.10;99.90;;;;;;1909547;75;21144;-76
2021/01/19 11:07:46;;;;;;;2.77;1.55;;;3.20;99.90;;;;;;1909542;75;21067;-75
2021/01/19 11:10:12;;;;;;;3.25;1.62;;;3.10;99.90;;;;;;1909507;75;21146;-75
2021/01/19 11:12:38;;;;;;;5.15;1.95;;;3.00;99.90;;;;;;1909442;75;21113;-74
2021/01/19 11:15:04;;;;;;;4.20;2.15;;;3.00;99.90;;;;;;1909136;75;21076;-74
2021/01/19 11:17:31;;;;;;;3.83;2.02;;;3.10;99.90;;;;;;1909464;75;21043;-74
2021/01/19 11:19:57;;;;;;;5.28;2.95;;;2.90;99.90;;;;;;1909361;75;21050;-75
2021/01/19 11:22:23;;;;;;;4.33;2.05;;;2.90;99.90;;;;;;1909251;75;21518;-75
2021/01/19 11:24:49;;;;;;;4.60;2.67;;;2.90;99.90;;;;;;1909324;75;21509;-73
2021/01/19 11:27:15;;;;;;;3.85;2.08;;;3.00;99.90;;;;;;1909170;74;21137;-75
2021/01/19 11:29:41;;;;;;;2.47;2.12;;;3.10;99.90;;;;;;1909605;75;21109;-74
2021/01/19 11:32:07;;;;;;;2.85;1.92;;;3.20;99.90;;;;;;1911887;75;21062;-75
2021/01/19 11:34:33;;;;;;;5.60;2.40;;;3.20;99.90;;;;;;1909253;75;21136;-74
2021/01/19 11:37:00;;;;;;;4.33;1.92;;;3.30;99.90;;;;;;1909261;74;21075;-74
2021/01/19 11:39:26;;;;;;;6.08;2.27;;;3.20;99.90;;;;;;1909319;75;21047;-75
2021/01/19 11:41:52;;;;;;;6.05;2.58;;;3.30;99.90;;;;;;1909153;75;21071;-77
2021/01/19 11:44:19;;;;;;;4.22;2.02;;;3.40;99.90;;;;;;1912387;74;21044;-75
2021/01/19 11:46:45;;;;;;;4.05;2.15;;;3.50;99.90;;;;;;1909572;75;21456;-77
2021/01/19 11:49:11;;;;;;;6.03;2.37;;;3.50;99.90;;;;;;1910796;75;21059;-77
2021/01/19 11:51:38;;;;;;;3.77;2.10;;;3.50;99.90;;;;;;1910825;74;21048;-75
2021/01/19 11:54:04;;;;;;;2.98;2.10;;;3.70;99.90;;;;;;1909170;75;21043;-76
2021/01/19 11:56:30;;;;;;;5.20;1.80;;;3.70;99.90;;;;;;1910894;73;21128;-77
2021/01/19 11:58:56;;;;;;;2.08;1.62;;;3.70;99.90;;;;;;1909179;74;21551;-77
2021/01/19 12:01:23;;;;;;;3.35;1.80;;;3.80;99.90;;;;;;1909285;75;21031;-76
2021/01/19 12:03:49;;;;;;;1.90;1.65;;;3.80;99.90;;;;;;1910928;75;21180;-76
2021/01/19 12:06:15;;;;;;;4.67;1.92;;;3.90;99.90;;;;;;1909380;75;21059;-75
2021/01/19 12:08:41;;;;;;;2.65;1.85;;;3.90;99.90;;;;;;1909258;75;21067;-75
2021/01/19 12:11:07;;;;;;;4.12;2.10;;;3.90;99.90;;;;;;1909376;75;21059;-75
2021/01/19 12:13:33;;;;;;;3.27;2.20;;;4.00;99.90;;;;;;1909234;75;21055;-76
2021/01/19 12:16:00;;;;;;;4.22;1.85;;;4.10;99.90;;;;;;1909275;75;21067;-75
2021/01/19 12:18:26;;;;;;;2.42;1.95;;;4.10;99.90;;;;;;1909369;75;21066;-76
2021/01/19 12:20:52;;;;;;;7.03;2.08;;;4.20;99.90;;;;;;1909244;75;21499;-75
2021/01/19 12:23:18;;;;;;;1.98;1.60;;;4.20;99.90;;;;;;1909228;75;21464;-75
2021/01/19 12:25:45;;;;;;;2.47;1.57;;;4.20;99.90;;;;;;1909315;74;21091;-74
2021/01/19 12:28:11;;;;;;;2.22;1.60;;;4.20;99.90;;;;;;1909228;75;21062;-75
2021/01/19 12:30:37;;;;;;;3.52;1.87;;;4.30;99.90;;;;;;1909341;75;21066;-75
2021/01/19 12:33:04;;;;;;;2.45;2.02;;;4.10;99.90;;;;;;1909236;74;21473;-75
2021/01/19 12:35:30;;;;;;;3.77;1.75;;;4.20;99.90;;;;;;1909251;75;21059;-75
2021/01/19 12:37:56;;;;;;;2.65;1.50;;;4.20;99.90;;;;;;1909231;74;21133;-74
2021/01/19 12:40:22;;;;;;;1.70;1.42;;;4.20;99.90;;;;;;1909287;74;21063;-75
2021/01/19 12:42:49;;;;;;;2.87;1.52;;;4.40;99.90;;;;;;1909287;75;21062;-75
2021/01/19 12:45:15;;;;;;;2.40;1.37;;;4.50;99.90;;;;;;1909165;74;21566;-75
2021/01/19 12:47:41;;;;;;;2.17;1.35;;;4.50;99.90;;;;;;1909146;74;21031;-75
2021/01/19 12:50:08;;;;;;;2.35;1.67;;;4.50;99.90;;;;;;1909479;75;21059;-75